Time;durP1;ratioP1;P1;durP2;ratioP2;P2;SDS_P1;SDS_P2;PMS_P1;PMS_P2;Temp;Humidity;BMP_temperature;BMP_pressure;BME280_temperature;BME280_humidity;BME280_pressure;Samples;Min_cycle;Max_cycle;Signal;HPM_P1;HPM_P2
2021/09/03 00:00:23;;;;;;;25.85;10.75;;;;;;;12.88;96.75;102588.28;4999352;28;20812;-67
2021/09/03 00:02:51;;;;;;;23.60;11.10;;;;;;;12.85;97.15;102582.09;4993342;28;20398;-67
2021/09/03 00:05:21;;;;;;;27.00;11.27;;;;;;;12.85;96.88;102582.09;4999307;28;20137;-67
2021/09/03 00:07:49;;;;;;;27.65;11.10;;;;;;;12.83;97.25;102576.75;4994171;28;20077;-67
2021/09/03 00:10:20;;;;;;;23.95;10.82;;;;;;;12.85;97.01;102580.28;4995420;28;20049;-67
2021/09/03 00:12:47;;;;;;;25.75;11.25;;;;;;;12.85;97.12;102572.25;5002252;28;20074;-67
2021/09/03 00:15:17;;;;;;;28.45;11.07;;;;;;;12.83;97.13;102574.06;4993700;28;20093;-67
2021/09/03 00:17:45;;;;;;;26.42;11.10;;;;;;;12.85;97.21;102564.22;5002520;28;20077;-67
2021/09/03 00:20:14;;;;;;;27.42;11.75;;;;;;;12.83;97.46;102562.47;4997535;28;20049;-67
2021/09/03 00:22:43;;;;;;;23.92;10.20;;;;;;;12.83;97.26;102567.84;5001329;28;20546;-67
2021/09/03 00:25:11;;;;;;;23.67;10.60;;;;;;;12.83;97.72;102565.16;4998898;28;20804;-67
2021/09/03 00:27:41;;;;;;;24.35;10.32;;;;;;;12.80;97.29;102559.84;4998035;28;20054;-67
2021/09/03 00:30:10;;;;;;;28.58;11.32;;;;;;;12.80;97.83;102552.69;5002610;28;20050;-67
2021/09/03 00:32:38;;;;;;;24.38;11.40;;;;;;;12.79;97.33;102560.75;4998717;28;20051;-67
2021/09/03 00:35:08;;;;;;;24.88;10.73;;;;;;;12.75;97.61;102557.22;4998478;28;20600;-67
2021/09/03 00:37:36;;;;;;;25.52;11.63;;;;;;;12.75;97.88;102556.34;5002621;28;20093;-67
2021/09/03 00:40:04;;;;;;;27.85;10.80;;;;;;;12.74;97.65;102555.47;4999905;28;20925;-67
2021/09/03 00:42:32;;;;;;;23.88;11.18;;;;;;;12.74;97.44;102550.09;4999437;28;20057;-67
2021/09/03 00:45:01;;;;;;;25.17;10.73;;;;;;;12.72;97.66;102543.88;4996738;28;20053;-67
2021/09/03 00:47:30;;;;;;;27.55;11.55;;;;;;;12.71;97.73;102551.00;5002687;28;20057;-67
2021/09/03 00:49:57;;;;;;;27.02;11.23;;;;;;;12.70;97.96;102537.66;4996022;28;20450;-67
2021/09/03 00:52:26;;;;;;;25.67;11.25;;;;;;;12.67;97.57;102538.59;4999644;28;20522;-67
2021/09/03 00:54:57;;;;;;;25.13;11.02;;;;;;;12.64;97.35;102541.31;4997660;28;20502;-67
2021/09/03 00:57:26;;;;;;;25.63;11.15;;;;;;;12.64;98.35;102543.09;4996391;28;20081;-67
2021/09/03 00:59:55;;;;;;;24.13;10.75;;;;;;;12.64;98.01;102543.09;5003588;28;20092;-67
2021/09/03 01:02:25;;;;;;;23.63;11.60;;;;;;;12.60;98.00;102536.91;4996704;28;20050;-67
2021/09/03 01:04:53;;;;;;;25.52;11.77;;;;;;;12.58;98.26;102536.06;5001365;28;20088;-68
2021/09/03 01:07:21;;;;;;;27.45;11.50;;;;;;;12.58;98.18;102530.69;5000032;28;20140;-68
2021/09/03 01:09:49;;;;;;;23.60;10.15;;;;;;;12.58;98.02;102537.81;4998554;28;20115;-67
2021/09/03 01:12:17;;;;;;;26.13;11.60;;;;;;;12.57;98.48;102533.38;4999347;28;20116;-67
2021/09/03 01:14:45;;;;;;;27.88;11.48;;;;;;;12.57;98.21;102528.03;4997249;28;20054;-67
2021/09/03 01:17:13;;;;;;;26.08;11.77;;;;;;;12.55;98.39;102522.69;5001130;28;20061;-67
2021/09/03 01:19:42;;;;;;;33.10;12.45;;;;;;;12.57;98.06;102523.56;4997707;28;20266;-67
2021/09/03 01:22:12;;;;;;;29.42;10.93;;;;;;;12.54;98.21;102520.03;4996378;28;20050;-67
2021/09/03 01:24:39;;;;;;;25.55;10.02;;;;;;;12.54;98.25;102517.34;5000358;28;20081;-67
2021/09/03 01:27:07;;;;;;;25.48;11.65;;;;;;;12.54;98.38;102520.03;4998594;28;20061;-67
2021/09/03 01:29:35;;;;;;;26.92;11.07;;;;;;;12.54;98.42;102520.91;5001265;28;20077;-67
2021/09/03 01:32:03;;;;;;;25.48;11.48;;;;;;;12.50;98.44;102512.03;4997024;28;20378;-67
2021/09/03 01:34:31;;;;;;;30.92;11.60;;;;;;;12.48;98.78;102519.22;4998900;28;20077;-68
2021/09/03 01:36:59;;;;;;;28.38;12.02;;;;;;;12.46;98.68;102517.44;4999081;28;20433;-68
2021/09/03 01:39:28;;;;;;;23.73;11.23;;;;;;;12.46;99.13;102512.09;4997712;28;20050;-68
2021/09/03 01:41:56;;;;;;;27.73;10.90;;;;;;;12.45;99.32;102513.91;5001976;28;20049;-68
2021/09/03 01:44:24;;;;;;;27.88;11.32;;;;;;;12.43;99.40;102512.13;4996965;28;20054;-68
2021/09/03 01:46:52;;;;;;;28.73;10.90;;;;;;;12.44;99.21;102506.75;5001269;28;20053;-68
2021/09/03 01:49:20;;;;;;;26.45;11.32;;;;;;;12.43;99.06;102505.00;4999310;28;20464;-67
2021/09/03 01:51:48;;;;;;;29.98;11.82;;;;;;;12.44;99.42;102489.81;4996242;28;20425;-68
2021/09/03 01:54:15;;;;;;;32.10;12.60;;;;;;;12.48;99.17;102500.47;4998845;28;20441;-68
2021/09/03 01:56:44;;;;;;;26.05;11.65;;;;;;;12.48;99.19;102504.91;4996402;28;20168;-68
2021/09/03 01:59:12;;;;;;;25.00;11.25;;;;;;;12.48;99.26;102499.56;4999651;28;20050;-68
2021/09/03 02:01:40;;;;;;;27.83;11.70;;;;;;;12.45;99.29;102496.97;4998564;28;20054;-69
2021/09/03 02:04:08;;;;;;;30.05;11.63;;;;;;;12.46;99.33;102483.56;4995461;28;20065;-68
2021/09/03 02:06:36;;;;;;;27.77;12.05;;;;;;;12.46;99.43;102477.28;4996506;28;20304;-68
2021/09/03 02:09:04;;;;;;;28.30;12.18;;;;;;;12.45;99.58;102484.44;4996759;28;20298;-68
2021/09/03 02:11:32;;;;;;;32.67;12.38;;;;;;;12.44;99.38;102479.97;4997996;28;20925;-68
2021/09/03 02:14:01;;;;;;;30.65;11.25;;;;;;;12.44;99.28;102484.47;4997267;28;20374;-68
2021/09/03 02:16:29;;;;;;;26.48;10.95;;;;;;;12.42;99.46;102478.25;4997775;28;20057;-68
2021/09/03 02:18:58;;;;;;;24.58;11.82;;;;;;;12.42;99.45;102478.25;5000795;28;20046;-68
2021/09/03 02:21:26;;;;;;;29.40;11.63;;;;;;;12.42;99.85;102479.13;4997042;28;20775;-68
2021/09/03 02:23:54;;;;;;;28.45;11.55;;;;;;;12.42;99.51;102476.44;4998929;28;20422;-67
2021/09/03 02:26:22;;;;;;;30.02;12.40;;;;;;;12.44;99.89;102474.63;4996320;28;20057;-68
2021/09/03 02:28:50;;;;;;;28.70;12.43;;;;;;;12.44;99.72;102471.94;4998628;28;20064;-68
2021/09/03 02:31:19;;;;;;;25.95;11.68;;;;;;;12.46;99.95;102475.53;4995312;28;20088;-68
2021/09/03 02:33:46;;;;;;;30.35;12.57;;;;;;;12.44;99.70;102469.28;4996364;28;20577;-68
2021/09/03 02:36:15;;;;;;;27.60;11.65;;;;;;;12.45;99.71;102465.72;4998232;28;20049;-68
2021/09/03 02:38:43;;;;;;;28.60;11.52;;;;;;;12.42;99.93;102471.09;4999250;28;20657;-68
2021/09/03 02:41:11;;;;;;;30.63;13.10;;;;;;;12.42;99.80;102467.53;4999672;28;20073;-68
2021/09/03 02:43:39;;;;;;;31.75;12.20;;;;;;;12.38;100.00;102461.34;4998479;28;20549;-68
2021/09/03 02:46:07;;;;;;;28.42;11.38;;;;;;;12.37;100.00;102461.38;4991684;28;20054;-67
2021/09/03 02:48:36;;;;;;;28.98;11.88;;;;;;;12.31;100.00;102454.31;5001471;28;20053;-67
2021/09/03 02:51:04;;;;;;;29.55;11.50;;;;;;;12.33;100.00;102455.19;4995243;28;20141;-65
2021/09/03 02:53:31;;;;;;;28.88;13.13;;;;;;;12.33;100.00;102453.38;5001503;28;20049;-65
2021/09/03 02:55:59;;;;;;;31.45;12.00;;;;;;;12.30;100.00;102453.41;4995658;28;20050;-65
2021/09/03 02:58:27;;;;;;;31.60;13.32;;;;;;;12.31;100.00;102452.53;4996013;28;20050;-65
2021/09/03 03:00:55;;;;;;;28.02;12.18;;;;;;;12.33;100.00;102444.47;5000911;28;20397;-65
2021/09/03 03:03:24;;;;;;;27.05;11.75;;;;;;;12.31;100.00;102441.81;4993190;28;20078;-65
2021/09/03 03:05:54;;;;;;;24.73;11.23;;;;;;;12.29;100.00;102446.31;4998795;28;20053;-65
2021/09/03 03:08:21;;;;;;;31.20;12.43;;;;;;;12.29;100.00;102432.03;4996057;28;20669;-65
2021/09/03 03:10:49;;;;;;;25.52;11.93;;;;;;;12.29;100.00;102430.25;4995836;28;20060;-65
2021/09/03 03:13:22;;;;;;;30.35;12.32;;;;;;;12.26;100.00;102430.28;4997094;28;20115;-64
2021/09/03 03:15:51;;;;;;;32.45;12.48;;;;;;;12.25;100.00;102427.63;4996859;28;20053;-64
2021/09/03 03:18:19;;;;;;;33.60;13.57;;;;;;;12.25;100.00;102428.50;4996741;28;20642;-64
2021/09/03 03:20:49;;;;;;;30.02;12.50;;;;;;;12.25;100.00;102431.19;4997258;28;20050;-65
2021/09/03 03:23:19;;;;;;;30.80;12.50;;;;;;;12.26;100.00;102429.38;4997296;28;20471;-65
2021/09/03 03:25:47;;;;;;;31.92;13.10;;;;;;;12.23;100.00;102424.97;4999159;28;20545;-65
2021/09/03 03:28:15;;;;;;;25.48;12.10;;;;;;;12.24;100.00;102429.44;4993639;28;20147;-67
2021/09/03 03:30:43;;;;;;;28.70;11.77;;;;;;;12.26;100.00;102422.25;4998643;28;20054;-67
2021/09/03 03:33:11;;;;;;;26.88;13.73;;;;;;;12.22;100.00;102425.00;4994138;28;20402;-67
2021/09/03 03:35:39;;;;;;;31.20;13.05;;;;;;;12.22;100.00;102425.00;4994875;28;20049;-67
2021/09/03 03:38:07;;;;;;;32.58;14.75;;;;;;;12.23;100.00;102424.97;4994218;28;20097;-67
2021/09/03 03:40:36;;;;;;;28.30;13.13;;;;;;;12.26;100.00;102410.66;4994968;28;20444;-67
2021/09/03 03:43:04;;;;;;;29.67;13.15;;;;;;;12.24;100.00;102418.72;5000189;28;20469;-68
2021/09/03 03:45:32;;;;;;;33.78;14.20;;;;;;;12.21;100.00;102410.72;4996374;28;20168;-68
2021/09/03 03:47:59;;;;;;;28.25;13.60;;;;;;;12.20;100.00;102400.91;5000486;28;20076;-68
2021/09/03 03:50:27;;;;;;;42.80;16.08;;;;;;;12.18;100.00;102410.78;4996206;28;20120;-68
2021/09/03 03:52:55;;;;;;;36.33;14.75;;;;;;;12.17;100.00;102405.44;5001472;28;20473;-68
2021/09/03 03:55:22;;;;;;;38.40;15.00;;;;;;;12.17;100.00;102405.44;4999735;28;20129;-68
2021/09/03 03:57:51;;;;;;;44.15;14.77;;;;;;;12.16;100.00;102404.56;4998563;28;20132;-68
2021/09/03 04:00:19;;;;;;;32.88;13.70;;;;;;;12.15;100.00;102408.13;5000100;28;20073;-68
2021/09/03 04:02:47;;;;;;;35.00;13.95;;;;;;;12.15;100.00;102400.09;4998828;28;20057;-68
2021/09/03 04:05:16;;;;;;;33.22;14.75;;;;;;;12.15;100.00;102409.00;5001230;28;20069;-69
2021/09/03 04:07:44;;;;;;;33.25;13.75;;;;;;;12.17;100.00;102410.78;5003061;28;20061;-68
2021/09/03 04:10:12;;;;;;;33.20;14.02;;;;;;;12.20;100.00;102402.72;4998390;28;20564;-69
2021/09/03 04:12:40;;;;;;;37.03;15.38;;;;;;;12.14;100.00;102406.38;5005319;28;20050;-68
2021/09/03 04:15:10;;;;;;;36.55;16.17;;;;;;;12.13;100.00;102400.13;4999092;28;20053;-69
2021/09/03 04:17:38;;;;;;;36.83;15.32;;;;;;;12.15;100.00;102402.78;5002728;28;20119;-68
2021/09/03 04:20:08;;;;;;;34.85;15.38;;;;;;;12.13;100.00;102399.25;5000890;28;20053;-68
2021/09/03 04:22:36;;;;;;;33.95;14.43;;;;;;;12.09;100.00;102409.09;4997528;28;20355;-68
2021/09/03 04:25:05;;;;;;;41.85;16.60;;;;;;;12.08;100.00;102403.78;4998703;28;20302;-66
2021/09/03 04:27:34;;;;;;;36.38;15.35;;;;;;;12.07;100.00;102392.19;4998608;28;20190;-65
2021/09/03 04:30:02;;;;;;;36.97;15.23;;;;;;;12.07;100.00;102392.19;4998948;28;20077;-66
2021/09/03 04:32:31;;;;;;;35.75;14.48;;;;;;;12.06;100.00;102395.75;4999797;28;20050;-65
2021/09/03 04:34:59;;;;;;;35.97;14.43;;;;;;;12.08;100.00;102395.75;4999112;28;20052;-66
2021/09/03 04:37:27;;;;;;;34.35;14.45;;;;;;;12.06;100.00;102397.56;5000463;28;20489;-66
2021/09/03 04:39:55;;;;;;;39.40;16.55;;;;;;;12.05;100.00;102398.47;4994754;28;20138;-67
2021/09/03 04:42:23;;;;;;;31.98;14.15;;;;;;;12.02;100.00;102402.06;5001110;28;20057;-66
2021/09/03 04:44:51;;;;;;;38.55;15.10;;;;;;;12.03;100.00;102395.81;4999038;28;20046;-66
2021/09/03 04:47:19;;;;;;;33.20;14.80;;;;;;;12.06;100.00;102405.59;4998506;28;20171;-66
2021/09/03 04:49:48;;;;;;;35.88;15.85;;;;;;;12.01;100.00;102397.63;5000858;28;20052;-67
2021/09/03 04:52:15;;;;;;;33.40;14.73;;;;;;;11.95;100.00;102403.94;4998083;28;20053;-64
2021/09/03 04:54:44;;;;;;;44.20;16.30;;;;;;;11.96;100.00;102394.13;5000768;28;20061;-65
2021/09/03 04:57:12;;;;;;;36.72;15.20;;;;;;;11.92;100.00;102393.28;5002682;28;20097;-65
2021/09/03 04:59:39;;;;;;;38.88;15.98;;;;;;;11.92;100.00;102392.41;4996740;28;20053;-65
2021/09/03 05:02:07;;;;;;;39.20;15.40;;;;;;;11.90;100.00;102395.06;5000971;28;20053;-65
2021/09/03 05:04:35;;;;;;;35.38;15.93;;;;;;;11.91;100.00;102398.63;5002466;28;20379;-65
2021/09/03 05:07:05;;;;;;;36.95;16.38;;;;;;;11.89;100.00;102397.75;5000002;28;20394;-65
2021/09/03 05:09:33;;;;;;;39.53;17.25;;;;;;;11.90;100.00;102388.81;4996074;28;20096;-67
2021/09/03 05:12:01;;;;;;;39.33;15.95;;;;;;;11.92;100.00;102393.28;4998290;28;20054;-67
2021/09/03 05:14:29;;;;;;;36.28;15.82;;;;;;;11.93;100.00;102387.00;4997130;28;20493;-65
2021/09/03 05:16:57;;;;;;;39.58;15.82;;;;;;;11.96;100.00;102389.66;4997397;28;20057;-68
2021/09/03 05:19:25;;;;;;;37.17;16.70;;;;;;;11.96;100.00;102384.28;5000511;28;20104;-67
2021/09/03 05:21:53;;;;;;;43.63;16.55;;;;;;;11.96;100.00;102386.97;4997950;28;20057;-68
2021/09/03 05:24:22;;;;;;;36.53;16.73;;;;;;;11.99;100.00;102394.09;5001482;28;20045;-68
2021/09/03 05:26:50;;;;;;;38.55;17.15;;;;;;;12.02;100.00;102388.69;4995935;28;20065;-68
2021/09/03 05:29:18;;;;;;;39.33;16.00;;;;;;;12.05;100.00;102395.78;4999284;28;20143;-68
2021/09/03 05:31:46;;;;;;;45.25;19.27;;;;;;;12.08;100.00;102398.41;4998620;28;20061;-68
2021/09/03 05:34:14;;;;;;;35.05;14.75;;;;;;;12.10;100.00;102394.81;5000324;28;20050;-68
2021/09/03 05:36:41;;;;;;;36.20;15.20;;;;;;;12.17;100.00;102398.28;5000827;28;20050;-68
2021/09/03 05:39:09;;;;;;;42.00;18.20;;;;;;;12.24;100.00;102400.00;4996585;28;20487;-68
2021/09/03 05:41:38;;;;;;;39.90;16.02;;;;;;;12.31;100.00;102403.47;4999349;28;20355;-68
2021/09/03 05:44:06;;;;;;;41.70;16.90;;;;;;;12.37;100.00;102394.44;5000899;28;21081;-68
2021/09/03 05:46:34;;;;;;;40.78;16.63;;;;;;;12.45;100.00;102401.47;4998268;28;20124;-68
2021/09/03 05:49:02;;;;;;;33.22;15.10;;;;;;;12.51;100.00;102403.13;5000627;28;20049;-68
2021/09/03 05:51:30;;;;;;;40.63;16.58;;;;;;;12.61;100.00;102406.56;4995883;28;20057;-68
2021/09/03 05:53:58;;;;;;;40.92;17.13;;;;;;;12.69;100.00;102400.19;4997692;28;20203;-68
2021/09/03 05:56:25;;;;;;;43.63;17.38;;;;;;;12.75;100.00;102398.31;4998851;28;20516;-68
2021/09/03 05:58:55;;;;;;;40.40;16.70;;;;;;;12.86;100.00;102405.25;4996764;28;20072;-68
2021/09/03 06:01:23;;;;;;;38.83;16.55;;;;;;;12.95;100.00;102396.19;4995986;28;20057;-68
2021/09/03 06:03:51;;;;;;;42.78;18.42;;;;;;;13.00;100.00;102399.66;4994209;28;20125;-68
2021/09/03 06:06:19;;;;;;;36.22;15.05;;;;;;;13.14;100.00;102393.19;4996598;28;20049;-68
2021/09/03 06:08:48;;;;;;;35.60;16.40;;;;;;;13.21;99.73;102394.81;4996431;28;20053;-68
2021/09/03 06:11:16;;;;;;;44.08;16.67;;;;;;;13.29;99.51;102392.91;4996106;28;20449;-69
2021/09/03 06:13:44;;;;;;;39.17;16.67;;;;;;;13.40;98.90;102390.03;4997521;28;20093;-68
2021/09/03 06:16:13;;;;;;;40.35;17.42;;;;;;;13.52;98.65;102383.53;4994458;28;20184;-68
2021/09/03 06:18:41;;;;;;;41.10;16.50;;;;;;;13.62;97.60;102382.44;4992964;28;20158;-68
2021/09/03 06:21:09;;;;;;;41.38;17.95;;;;;;;13.75;97.56;102385.78;4994247;28;20045;-68
2021/09/03 06:23:37;;;;;;;38.20;16.55;;;;;;;13.86;96.58;102389.13;4994903;28;20183;-68
2021/09/03 06:26:05;;;;;;;40.75;16.30;;;;;;;13.97;96.53;102387.06;4998141;28;20073;-68
2021/09/03 06:28:33;;;;;;;42.25;17.48;;;;;;;14.05;95.77;102388.75;4994805;28;20054;-69
2021/09/03 06:31:01;;;;;;;39.42;17.00;;;;;;;14.04;95.13;102387.81;4997572;28;20060;-68
2021/09/03 06:33:30;;;;;;;35.95;15.93;;;;;;;14.18;95.00;102390.19;4997845;28;20559;-68
2021/09/03 06:35:58;;;;;;;39.15;17.73;;;;;;;14.25;94.60;102390.94;4996557;28;20225;-68
2021/09/03 06:38:26;;;;;;;34.63;16.05;;;;;;;14.35;93.93;102395.19;4997378;28;20100;-66
2021/09/03 06:40:54;;;;;;;37.40;16.65;;;;;;;14.46;93.34;102394.97;4997130;28;20149;-66
2021/09/03 06:43:22;;;;;;;41.40;16.50;;;;;;;14.60;92.81;102398.22;4997857;28;20077;-68
2021/09/03 06:45:49;;;;;;;40.17;16.95;;;;;;;14.73;92.89;102393.44;4988464;28;20554;-68
2021/09/03 06:48:22;;;;;;;38.75;17.00;;;;;;;14.84;92.12;102395.84;4998037;28;20210;-68
2021/09/03 06:50:51;;;;;;;37.58;17.05;;;;;;;14.94;91.44;102394.69;4998247;28;20049;-68
2021/09/03 06:53:19;;;;;;;37.38;16.25;;;;;;;15.00;90.96;102391.84;4996977;28;20120;-68
2021/09/03 06:55:47;;;;;;;38.50;16.15;;;;;;;15.17;90.76;102393.19;4998911;28;20057;-68
2021/09/03 06:58:14;;;;;;;37.67;16.45;;;;;;;15.32;90.48;102390.09;4998220;28;21579;-68
2021/09/03 07:00:42;;;;;;;41.90;18.13;;;;;;;15.38;89.53;102386.38;4997404;28;20152;-68
2021/09/03 07:03:10;;;;;;;41.75;18.35;;;;;;;15.49;89.10;102385.16;4999698;28;20561;-68
2021/09/03 07:05:38;;;;;;;39.53;16.65;;;;;;;15.68;88.50;102371.13;4996443;28;20112;-68
2021/09/03 07:08:07;;;;;;;37.97;17.63;;;;;;;15.80;87.22;102378.91;4997496;28;20494;-68
2021/09/03 07:10:35;;;;;;;35.33;17.15;;;;;;;16.16;87.10;102376.03;4996630;28;20053;-68
2021/09/03 07:13:03;;;;;;;36.08;16.42;;;;;;;16.24;86.12;102383.84;4994659;28;20107;-68
2021/09/03 07:15:30;;;;;;;30.85;15.38;;;;;;;16.56;85.29;102377.41;4995488;28;20045;-68
2021/09/03 07:17:58;;;;;;;34.15;17.10;;;;;;;16.71;85.48;102376.03;4995920;28;20054;-68
2021/09/03 07:20:26;;;;;;;33.60;16.85;;;;;;;16.73;84.24;102379.56;4995002;28;20046;-66
2021/09/03 07:22:54;;;;;;;35.42;16.35;;;;;;;16.93;83.44;102370.84;4994091;28;20233;-66
2021/09/03 07:25:23;;;;;;;34.08;15.73;;;;;;;16.93;83.64;102378.91;4995764;28;20176;-66
2021/09/03 07:27:50;;;;;;;37.38;18.30;;;;;;;17.03;83.23;102373.22;4997391;28;20046;-66
2021/09/03 07:30:18;;;;;;;36.85;17.42;;;;;;;17.22;81.56;102385.13;4985039;28;20049;-66
2021/09/03 07:32:47;;;;;;;35.05;17.80;;;;;;;17.64;81.41;102372.78;5001403;28;20127;-67
2021/09/03 07:35:18;;;;;;;36.70;16.92;;;;;;;17.57;80.65;102363.16;4993491;28;20523;-66
2021/09/03 07:37:45;;;;;;;35.10;16.23;;;;;;;17.74;80.73;102363.41;4988413;28;20147;-66
2021/09/03 07:40:16;;;;;;;38.75;17.20;;;;;;;17.89;79.11;102365.59;4993262;28;20136;-68
2021/09/03 07:42:45;;;;;;;33.22;16.05;;;;;;;18.08;79.19;102365.75;4996546;28;20050;-68
2021/09/03 07:45:13;;;;;;;32.22;15.73;;;;;;;18.18;78.95;102363.53;4996340;28;20648;-68
2021/09/03 07:47:41;;;;;;;33.38;16.77;;;;;;;18.48;77.69;102356.00;4992540;28;20056;-68
2021/09/03 07:50:17;;;;;;;32.67;16.83;;;;;;;18.39;76.92;102361.78;4996863;28;20147;-68
2021/09/03 07:52:45;;;;;;;31.70;16.80;;;;;;;18.32;77.12;102359.41;4994640;28;20137;-66
2021/09/03 07:55:34;;;;;;;32.15;16.42;;;;;;;18.33;76.09;102358.47;4994590;28;20541;-66
2021/09/03 07:58:05;;;;;;;28.58;15.13;;;;;;;18.49;75.80;102359.59;4995521;28;20058;-66
2021/09/03 08:00:33;;;;;;;32.22;15.73;;;;;;;18.15;76.47;102363.69;4993367;28;20058;-64
2021/09/03 08:03:01;;;;;;;34.55;16.65;;;;;;;18.27;75.87;102365.00;4987078;28;20397;-64
2021/09/03 08:05:30;;;;;;;30.95;16.17;;;;;;;18.39;75.70;102360.91;4993014;28;20147;-64
2021/09/03 08:07:58;;;;;;;32.75;17.92;;;;;;;18.41;75.21;102356.34;4998183;28;20673;-64
2021/09/03 08:10:26;;;;;;;29.83;15.80;;;;;;;18.96;74.74;102351.31;4995279;28;20211;-64
2021/09/03 08:12:54;;;;;;;32.45;17.58;;;;;;;19.08;73.20;102343.63;4993088;28;20050;-67
2021/09/03 08:15:23;;;;;;;32.97;16.52;;;;;;;19.05;73.16;102347.31;4995953;28;20053;-66
2021/09/03 08:17:51;;;;;;;33.65;17.45;;;;;;;19.09;72.29;102353.50;4994652;28;20154;-67
2021/09/03 08:20:19;;;;;;;31.55;16.02;;;;;;;19.35;72.59;102341.50;4997851;28;20060;-67
2021/09/03 08:22:48;;;;;;;31.20;16.45;;;;;;;19.31;72.33;102342.59;4995000;28;20054;-66
2021/09/03 08:25:16;;;;;;;32.65;16.42;;;;;;;19.41;71.66;102344.81;4992867;28;20082;-66
2021/09/03 08:27:44;;;;;;;28.08;14.43;;;;;;;19.79;71.15;102338.59;4994339;28;20061;-66
2021/09/03 08:30:12;;;;;;;26.67;15.77;;;;;;;19.67;70.64;102337.31;4995862;28;20093;-67
2021/09/03 08:32:41;;;;;;;31.67;15.82;;;;;;;19.71;70.43;102340.75;4996714;28;20145;-67
2021/09/03 08:35:09;;;;;;;24.52;14.38;;;;;;;19.93;70.33;102343.34;4994615;28;20077;-66
2021/09/03 08:37:39;;;;;;;31.70;16.15;;;;;;;19.91;69.98;102339.84;4999732;28;20371;-66
2021/09/03 08:40:09;;;;;;;27.33;16.48;;;;;;;20.27;69.17;102345.28;5000110;28;20058;-66
2021/09/03 08:42:38;;;;;;;24.92;15.35;;;;;;;20.35;68.44;102350.34;5000933;28;20262;-66
2021/09/03 08:45:08;;;;;;;26.35;14.70;;;;;;;20.43;68.11;102348.16;5001169;28;20053;-63
2021/09/03 08:47:38;;;;;;;23.45;14.23;;;;;;;20.48;67.75;102351.50;4999592;28;20049;-64
2021/09/03 08:50:09;;;;;;;28.85;15.82;;;;;;;20.55;67.85;102352.06;4994442;28;20054;-64
2021/09/03 08:52:39;;;;;;;27.30;15.55;;;;;;;20.76;67.20;102342.00;4999636;28;20120;-63
2021/09/03 08:55:08;;;;;;;28.60;15.30;;;;;;;20.64;67.07;102343.50;4997503;28;20128;-63
2021/09/03 08:57:36;;;;;;;26.75;16.05;;;;;;;20.77;66.78;102351.00;5001270;28;20477;-64
2021/09/03 09:00:11;;;;;;;29.23;15.00;;;;;;;21.05;65.46;102336.88;4997248;28;20288;-64
2021/09/03 09:02:58;;;;;;;26.10;14.65;;;;;;;20.95;65.08;102341.03;5000343;28;20164;-66
2021/09/03 09:05:47;;;;;;;27.55;15.05;;;;;;;21.06;64.66;102336.81;4997249;28;20516;-66
2021/09/03 09:08:15;;;;;;;32.00;15.52;;;;;;;20.94;65.41;102350.13;5000062;28;20096;-66
2021/09/03 09:10:50;;;;;;;27.40;14.95;;;;;;;21.04;65.12;102345.97;4996957;28;20735;-66
2021/09/03 09:13:20;;;;;;;27.77;15.50;;;;;;;21.51;64.76;102344.44;4994919;28;20099;-66
2021/09/03 09:16:08;;;;;;;24.92;14.60;;;;;;;21.59;63.61;102347.59;4998894;28;20061;-66
2021/09/03 09:18:45;;;;;;;27.75;14.68;;;;;;;21.52;64.02;102351.59;4998380;28;20394;-66
2021/09/03 09:21:18;;;;;;;28.15;15.68;;;;;;;21.54;63.35;102345.13;4999820;28;20045;-66
2021/09/03 09:23:49;;;;;;;26.35;14.63;;;;;;;21.44;63.53;102350.16;4997794;28;20205;-67
2021/09/03 09:26:19;;;;;;;27.75;14.18;;;;;;;21.64;62.84;102340.97;4996143;28;21084;-67
2021/09/03 09:28:48;;;;;;;26.88;14.82;;;;;;;21.73;63.00;102342.28;5000073;28;20066;-67
2021/09/03 09:31:36;;;;;;;27.13;15.43;;;;;;;21.89;62.85;102342.28;4994591;28;20057;-68
2021/09/03 09:34:19;;;;;;;27.55;15.70;;;;;;;21.88;62.37;102354.13;4999226;28;20104;-68
2021/09/03 09:36:51;;;;;;;25.52;14.73;;;;;;;22.29;61.45;102347.34;4998326;28;20477;-68
2021/09/03 09:39:19;;;;;;;26.42;14.00;;;;;;;22.63;60.79;102356.22;4994741;28;20381;-68
2021/09/03 09:41:58;;;;;;;25.05;14.02;;;;;;;22.72;60.65;102350.25;4995497;28;20065;-68
2021/09/03 09:44:30;;;;;;;24.75;13.20;;;;;;;22.78;59.17;102352.56;4998703;28;20283;-68
2021/09/03 09:47:06;;;;;;;27.90;13.88;;;;;;;23.08;59.24;102351.75;4998538;28;20063;-68
2021/09/03 09:49:34;;;;;;;25.98;14.70;;;;;;;22.62;59.59;102349.03;4998972;28;20049;-68
2021/09/03 09:52:04;;;;;;;27.77;15.27;;;;;;;22.25;59.64;102346.59;4996397;28;20061;-68
2021/09/03 09:54:33;;;;;;;26.38;14.63;;;;;;;22.47;59.68;102345.38;4995937;28;20069;-67
2021/09/03 09:57:03;;;;;;;27.27;15.75;;;;;;;22.48;59.30;102341.72;4995490;28;20395;-67
2021/09/03 09:59:32;;;;;;;29.80;16.95;;;;;;;22.04;61.26;102339.69;4995086;28;20049;-67
2021/09/03 10:02:02;;;;;;;27.77;15.40;;;;;;;22.60;60.06;102330.09;4992175;28;20165;-67
2021/09/03 10:04:32;;;;;;;27.02;14.82;;;;;;;22.72;59.45;102333.94;4995710;28;20180;-68
2021/09/03 10:07:02;;;;;;;29.05;16.13;;;;;;;22.79;59.49;102331.72;4996385;28;20046;-67
2021/09/03 10:09:32;;;;;;;26.52;16.17;;;;;;;22.62;59.42;102335.44;4994854;28;20465;-67
2021/09/03 10:12:01;;;;;;;30.75;15.80;;;;;;;22.97;58.32;102335.13;4994869;28;20104;-67
2021/09/03 10:14:31;;;;;;;28.67;14.77;;;;;;;22.78;59.25;102333.53;4998467;28;20057;-67
2021/09/03 10:17:00;;;;;;;27.75;16.23;;;;;;;23.09;58.37;102316.25;4997199;28;20472;-68
2021/09/03 10:19:30;;;;;;;29.50;15.27;;;;;;;23.47;57.74;102314.81;4994425;28;20054;-69
2021/09/03 10:22:03;;;;;;;24.95;15.02;;;;;;;23.43;57.86;102313.28;4995217;28;20068;-69
2021/09/03 10:24:32;;;;;;;26.08;15.77;;;;;;;23.40;57.05;102318.91;4992296;28;20100;-67
2021/09/03 10:27:00;;;;;;;28.63;16.08;;;;;;;23.41;56.36;102312.47;4997793;28;20059;-68
2021/09/03 10:29:32;;;;;;;26.83;14.98;;;;;;;23.28;56.96;102306.94;4989908;28;20054;-67
2021/09/03 10:32:27;;;;;;;28.67;16.42;;;;;;;23.34;56.75;102309.25;4995513;28;20558;-68
2021/09/03 10:34:57;;;;;;;26.58;14.85;;;;;;;23.64;55.38;102305.56;4989073;28;20081;-67
2021/09/03 10:37:35;;;;;;;26.60;14.73;;;;;;;23.65;56.27;102310.94;4993510;28;20568;-67
2021/09/03 10:40:24;;;;;;;24.92;15.10;;;;;;;23.84;56.37;102307.03;4996364;28;20050;-67
2021/09/03 10:42:58;;;;;;;26.02;14.65;;;;;;;23.84;55.21;102307.91;4983469;28;20061;-67
2021/09/03 10:45:35;;;;;;;29.00;15.75;;;;;;;23.66;56.29;102299.03;4996067;28;20124;-67
2021/09/03 10:48:13;;;;;;;27.60;15.27;;;;;;;23.45;56.06;102295.84;4994454;28;20112;-67
2021/09/03 10:50:51;;;;;;;26.65;15.48;;;;;;;23.52;56.45;102293.63;4998076;28;20061;-67
2021/09/03 10:53:35;;;;;;;28.85;15.73;;;;;;;23.75;56.29;102278.50;4998735;28;20058;-66
2021/09/03 10:56:34;;;;;;;23.77;14.15;;;;;;;23.75;56.23;102283.97;4986850;28;20406;-67
2021/09/03 10:59:05;;;;;;;25.35;14.38;;;;;;;24.08;54.58;102281.88;4983092;28;20100;-66
2021/09/03 11:01:37;;;;;;;28.33;14.80;;;;;;;23.75;55.39;102273.06;4994067;28;21082;-67
2021/09/03 11:04:10;;;;;;;26.20;15.52;;;;;;;23.98;55.53;102273.44;4997188;28;20060;-67
2021/09/03 11:06:40;;;;;;;27.40;14.77;;;;;;;24.19;54.95;102271.97;4995846;28;20135;-68
2021/09/03 11:09:20;;;;;;;26.70;15.60;;;;;;;23.97;55.48;102269.84;4996081;28;20044;-69
2021/09/03 11:11:51;;;;;;;26.70;14.80;;;;;;;24.14;54.87;102267.81;4996395;28;20045;-69
2021/09/03 11:14:20;;;;;;;31.40;17.25;;;;;;;23.77;55.52;102267.47;4997397;28;20057;-67
2021/09/03 11:16:50;;;;;;;26.48;15.38;;;;;;;23.91;55.46;102263.91;4997026;28;20100;-69